createdAt,value
2022-11-27T00:06:50.443Z,-0.61
2022-11-27T00:16:57.691Z,-0.62
2022-11-27T00:27:03.480Z,-0.61
2022-11-27T00:37:09.085Z,-0.55
2022-11-27T00:47:14.678Z,-0.48
2022-11-27T00:57:20.386Z,-0.41
2022-11-27T01:07:27.016Z,-0.40
2022-11-27T01:17:32.624Z,-0.41
2022-11-27T01:27:38.241Z,-0.41
2022-11-27T01:37:43.904Z,-0.36
2022-11-27T01:47:52.389Z,-0.31
2022-11-27T01:58:02.110Z,-0.29
2022-11-27T02:08:10.844Z,-0.30
2022-11-27T02:18:26.118Z,-0.31
2022-11-27T02:28:43.865Z,-0.41
2022-11-27T02:38:56.301Z,-0.49
2022-11-27T02:49:07.721Z,-0.46
2022-11-27T02:59:15.956Z,-0.39
2022-11-27T03:09:26.309Z,-0.48
2022-11-27T03:19:38.917Z,-0.46
2022-11-27T03:29:49.748Z,-0.38
2022-11-27T03:39:55.911Z,-0.34
2022-11-27T03:50:14.975Z,-0.42
2022-11-27T04:00:21.282Z,-0.43
2022-11-27T04:10:27.008Z,-0.39
2022-11-27T04:20:32.673Z,-0.41
2022-11-27T04:30:38.537Z,-0.44
2022-11-27T04:40:44.079Z,-0.37
2022-11-27T04:50:49.732Z,-0.32
2022-11-27T05:00:55.406Z,-0.29
2022-11-27T05:11:07.211Z,-0.22
2022-11-27T05:21:12.754Z,-0.22
2022-11-27T05:31:18.338Z,-0.24
2022-11-27T05:41:24.079Z,-0.30
2022-11-27T05:51:29.696Z,-0.30
2022-11-27T06:01:35.348Z,-0.31
2022-11-27T06:11:41.693Z,-0.30
2022-11-27T06:21:47.776Z,-0.28
2022-11-27T06:31:53.503Z,-0.26
2022-11-27T06:41:59.456Z,-0.25
2022-11-27T06:52:05.670Z,-0.15
2022-11-27T07:02:14.547Z,-0.04
2022-11-27T07:12:20.283Z,0.06
2022-11-27T07:22:25.915Z,0.20
2022-11-27T07:32:32.086Z,0.35
2022-11-27T07:42:39.024Z,0.50
2022-11-27T07:52:43.385Z,0.61
2022-11-27T08:02:49.105Z,0.66
2022-11-27T08:12:54.826Z,0.72
2022-11-27T08:23:03.003Z,0.85
2022-11-27T08:33:10.446Z,1.00
2022-11-27T08:43:14.560Z,1.14
2022-11-27T08:53:20.476Z,1.27
2022-11-27T09:03:26.097Z,1.38
2022-11-27T09:13:32.311Z,1.49
2022-11-27T09:23:39.615Z,1.59
2022-11-27T09:33:46.058Z,1.69
2022-11-27T09:43:57.756Z,1.82
2022-11-27T09:54:11.304Z,1.92
2022-11-27T10:04:19.876Z,2.06
2022-11-27T10:14:41.174Z,2.17
2022-11-27T10:25:00.712Z,2.26
2022-11-27T10:35:12.044Z,2.34
2022-11-27T10:45:22.890Z,2.40
2022-11-27T10:55:53.945Z,2.56
2022-11-27T11:06:21.315Z,2.68
2022-11-27T11:16:35.398Z,2.80
2022-11-27T11:26:46.556Z,2.91
2022-11-27T11:37:01.412Z,3.01
2022-11-27T11:47:07.486Z,3.12
2022-11-27T11:57:42.537Z,3.24
2022-11-27T12:08:11.736Z,3.39
2022-11-27T12:18:26.376Z,3.45
2022-11-27T12:28:57.511Z,3.59
2022-11-27T12:39:21.980Z,3.72
2022-11-27T12:49:33.125Z,3.79
2022-11-27T12:59:44.436Z,3.80
2022-11-27T13:09:57.953Z,3.70
2022-11-27T13:20:04.864Z,3.67
2022-11-27T13:30:19.695Z,3.66
2022-11-27T13:40:29.456Z,3.55
2022-11-27T13:50:46.580Z,3.46
2022-11-27T14:00:52.536Z,3.33
2022-11-27T14:11:03.940Z,2.95
2022-11-27T14:21:09.720Z,2.65
2022-11-27T14:31:27.815Z,2.40
2022-11-27T14:41:33.831Z,2.19
2022-11-27T14:51:41.091Z,2.02
2022-11-27T15:01:46.593Z,1.93
2022-11-27T15:11:56.822Z,1.87
2022-11-27T15:22:02.838Z,1.80
2022-11-27T15:32:23.396Z,1.82
2022-11-27T15:42:30.291Z,1.80
2022-11-27T15:52:35.929Z,1.74
2022-11-27T16:02:42.794Z,1.67
2022-11-27T16:12:48.864Z,1.67
2022-11-27T16:22:55.206Z,1.64
2022-11-27T16:33:02.861Z,1.62
2022-11-27T16:43:08.633Z,1.58
2022-11-27T16:53:14.216Z,1.54
2022-11-27T17:03:19.833Z,1.49
2022-11-27T17:13:25.632Z,1.45
2022-11-27T17:23:31.289Z,1.37
2022-11-27T17:33:37.096Z,1.26
2022-11-27T17:43:43.326Z,1.04
2022-11-27T17:53:49.424Z,0.69
2022-11-27T18:03:57.269Z,0.42
2022-11-27T18:14:02.922Z,0.12
2022-11-27T18:24:25.322Z,-0.11
2022-11-27T18:34:31.237Z,-0.34
2022-11-27T18:44:44.406Z,-0.51
2022-11-27T18:54:51.126Z,-0.75
2022-11-27T19:04:56.942Z,-0.94
2022-11-27T19:15:02.757Z,-1.14
2022-11-27T19:25:09.780Z,-1.32
2022-11-27T19:35:15.587Z,-1.36
2022-11-27T19:45:24.294Z,-1.34
2022-11-27T19:55:30.059Z,-1.37
2022-11-27T20:05:35.831Z,-1.39
2022-11-27T20:15:44.169Z,-1.47
2022-11-27T20:25:50.604Z,-1.62
2022-11-27T20:35:56.458Z,-1.75
2022-11-27T20:46:02.550Z,-1.83
2022-11-27T20:56:10.824Z,-1.92
2022-11-27T21:06:17.384Z,-2.01
2022-11-27T21:16:21.761Z,-2.08
2022-11-27T21:26:28.085Z,-2.14
2022-11-27T21:36:36.233Z,-2.18
2022-11-27T21:46:42.185Z,-2.25
2022-11-27T21:56:51.657Z,-2.38
2022-11-27T22:06:57.447Z,-2.54
2022-11-27T22:17:03.123Z,-2.68
2022-11-27T22:27:09.628Z,-2.72
2022-11-27T22:37:13.809Z,-2.77
2022-11-27T22:47:19.467Z,-2.81
2022-11-27T22:57:25.819Z,-2.75
2022-11-27T23:07:29.971Z,-2.73
2022-11-27T23:17:36.076Z,-2.75
2022-11-27T23:27:42.241Z,-2.73
2022-11-27T23:37:47.899Z,-2.72
2022-11-27T23:47:53.510Z,-2.73
2022-11-27T23:57:59.191Z,-2.68
